sensor_id;sensor_type;location;lat;lon;timestamp;pressure;altitude;pressure_sealevel;temperature;humidity
56992;BME280;42885;49.754;18.636;2023-02-23T00:00:18;98287.90;;;4.07;100.00
56992;BME280;42885;49.754;18.636;2023-02-23T00:02:56;98284.24;;;3.88;100.00
56992;BME280;42885;49.754;18.636;2023-02-23T00:05:29;98280.72;;;4.16;100.00
56992;BME280;42885;49.754;18.636;2023-02-23T00:08:00;98277.14;;;4.81;100.00
56992;BME280;42885;49.754;18.636;2023-02-23T00:10:31;98275.39;;;4.58;100.00
56992;BME280;42885;49.754;18.636;2023-02-23T00:13:02;98279.68;;;4.33;100.00
56992;BME280;42885;49.754;18.636;2023-02-23T00:15:33;98279.68;;;4.33;100.00
56992;BME280;42885;49.754;18.636;2023-02-23T00:18:05;98278.55;;;4.29;100.00
56992;BME280;42885;49.754;18.636;2023-02-23T00:20:37;98279.61;;;4.23;100.00
56992;BME280;42885;49.754;18.636;2023-02-23T00:23:10;98275.45;;;4.31;100.00
56992;BME280;42885;49.754;18.636;2023-02-23T00:25:41;98267.59;;;4.34;100.00
56992;BME280;42885;49.754;18.636;2023-02-23T00:28:13;98274.69;;;4.40;100.00
56992;BME280;42885;49.754;18.636;2023-02-23T00:30:44;98269.13;;;4.51;100.00
56992;BME280;42885;49.754;18.636;2023-02-23T00:33:15;98270.27;;;4.31;100.00
56992;BME280;42885;49.754;18.636;2023-02-23T00:35:46;98274.39;;;4.24;100.00
56992;BME280;42885;49.754;18.636;2023-02-23T00:38:17;98276.00;;;4.15;100.00
56992;BME280;42885;49.754;18.636;2023-02-23T00:40:48;98268.80;;;4.35;100.00
56992;BME280;42885;49.754;18.636;2023-02-23T00:43:19;98267.64;;;4.07;100.00
56992;BME280;42885;49.754;18.636;2023-02-23T00:45:54;98264.46;;;4.24;100.00
56992;BME280;42885;49.754;18.636;2023-02-23T00:48:24;98264.59;;;4.07;100.00
56992;BME280;42885;49.754;18.636;2023-02-23T00:51:02;98264.02;;;4.24;100.00
56992;BME280;42885;49.754;18.636;2023-02-23T00:53:33;98266.30;;;4.20;100.00
56992;BME280;42885;49.754;18.636;2023-02-23T00:56:06;98261.52;;;4.21;100.00
56992;BME280;42885;49.754;18.636;2023-02-23T00:58:38;98265.36;;;4.23;100.00
56992;BME280;42885;49.754;18.636;2023-02-23T01:01:11;98262.78;;;4.09;100.00
56992;BME280;42885;49.754;18.636;2023-02-23T01:03:45;98267.58;;;4.08;100.00
56992;BME280;42885;49.754;18.636;2023-02-23T01:06:16;98264.55;;;3.95;100.00
56992;BME280;42885;49.754;18.636;2023-02-23T01:08:49;98263.57;;;3.86;100.00
56992;BME280;42885;49.754;18.636;2023-02-23T01:11:23;98268.16;;;3.91;100.00
56992;BME280;42885;49.754;18.636;2023-02-23T01:13:58;98263.32;;;3.67;100.00
56992;BME280;42885;49.754;18.636;2023-02-23T01:16:31;98250.42;;;3.79;100.00
56992;BME280;42885;49.754;18.636;2023-02-23T01:19:04;98257.45;;;3.89;100.00
56992;BME280;42885;49.754;18.636;2023-02-23T01:21:38;98252.27;;;3.89;100.00
56992;BME280;42885;49.754;18.636;2023-02-23T01:24:12;98253.60;;;4.01;100.00
56992;BME280;42885;49.754;18.636;2023-02-23T01:26:44;98249.56;;;3.92;100.00
56992;BME280;42885;49.754;18.636;2023-02-23T01:29:16;98253.20;;;3.99;100.00
56992;BME280;42885;49.754;18.636;2023-02-23T01:31:48;98251.12;;;3.70;100.00
56992;BME280;42885;49.754;18.636;2023-02-23T01:34:22;98256.70;;;3.71;100.00
56992;BME280;42885;49.754;18.636;2023-02-23T01:36:53;98249.02;;;3.95;100.00
56992;BME280;42885;49.754;18.636;2023-02-23T01:39:26;98250.33;;;4.21;100.00
56992;BME280;42885;49.754;18.636;2023-02-23T01:41:57;98242.45;;;4.10;100.00
56992;BME280;42885;49.754;18.636;2023-02-23T01:47:06;98245.16;;;4.07;100.00
56992;BME280;42885;49.754;18.636;2023-02-23T01:49:44;98246.50;;;4.06;100.00
56992;BME280;42885;49.754;18.636;2023-02-23T01:52:17;98244.38;;;4.05;100.00
56992;BME280;42885;49.754;18.636;2023-02-23T01:54:51;98241.83;;;3.78;100.00
56992;BME280;42885;49.754;18.636;2023-02-23T01:57:27;98243.88;;;3.41;100.00
56992;BME280;42885;49.754;18.636;2023-02-23T01:59:58;98234.67;;;3.46;100.00
56992;BME280;42885;49.754;18.636;2023-02-23T02:02:30;98236.85;;;3.72;100.00
56992;BME280;42885;49.754;18.636;2023-02-23T02:05:03;98229.64;;;3.94;100.00
56992;BME280;42885;49.754;18.636;2023-02-23T02:07:36;98230.77;;;3.87;100.00
56992;BME280;42885;49.754;18.636;2023-02-23T02:10:09;98227.59;;;3.78;100.00
56992;BME280;42885;49.754;18.636;2023-02-23T02:12:44;98228.61;;;3.99;100.00
56992;BME280;42885;49.754;18.636;2023-02-23T02:15:16;98229.44;;;4.00;100.00
56992;BME280;42885;49.754;18.636;2023-02-23T02:18:03;98230.45;;;3.96;100.00
56992;BME280;42885;49.754;18.636;2023-02-23T02:30:08;98225.80;;;3.80;100.00
56992;BME280;42885;49.754;18.636;2023-02-23T02:38:33;98209.19;;;3.47;100.00
56992;BME280;42885;49.754;18.636;2023-02-23T02:41:08;98224.77;;;3.32;100.00
56992;BME280;42885;49.754;18.636;2023-02-23T02:43:57;98215.83;;;3.27;100.00
56992;BME280;42885;49.754;18.636;2023-02-23T02:46:36;98218.73;;;3.32;100.00
56992;BME280;42885;49.754;18.636;2023-02-23T02:49:06;98215.49;;;3.38;100.00
56992;BME280;42885;49.754;18.636;2023-02-23T02:51:41;98220.73;;;3.37;100.00
56992;BME280;42885;49.754;18.636;2023-02-23T02:54:31;98213.86;;;3.49;100.00
56992;BME280;42885;49.754;18.636;2023-02-23T02:57:03;98213.72;;;3.40;100.00
56992;BME280;42885;49.754;18.636;2023-02-23T02:59:46;98208.53;;;3.67;100.00
56992;BME280;42885;49.754;18.636;2023-02-23T03:02:37;98217.59;;;3.54;100.00
56992;BME280;42885;49.754;18.636;2023-02-23T03:05:34;98211.33;;;3.34;100.00
56992;BME280;42885;49.754;18.636;2023-02-23T03:08:28;98212.77;;;3.29;100.00
56992;BME280;42885;49.754;18.636;2023-02-23T03:11:14;98215.11;;;3.51;100.00
56992;BME280;42885;49.754;18.636;2023-02-23T03:14:12;98216.69;;;3.55;100.00
56992;BME280;42885;49.754;18.636;2023-02-23T03:17:10;98217.13;;;3.27;100.00
56992;BME280;42885;49.754;18.636;2023-02-23T03:20:06;98209.94;;;3.24;100.00
56992;BME280;42885;49.754;18.636;2023-02-23T03:26:27;98203.01;;;3.65;100.00
56992;BME280;42885;49.754;18.636;2023-02-23T03:29:39;98207.73;;;3.38;100.00
56992;BME280;42885;49.754;18.636;2023-02-23T03:35:33;98203.92;;;3.37;100.00
56992;BME280;42885;49.754;18.636;2023-02-23T03:38:40;98205.23;;;2.93;100.00
56992;BME280;42885;49.754;18.636;2023-02-23T03:41:33;98200.03;;;2.95;100.00
56992;BME280;42885;49.754;18.636;2023-02-23T03:44:26;98207.36;;;3.09;100.00
56992;BME280;42885;49.754;18.636;2023-02-23T03:47:14;98207.93;;;3.19;100.00
56992;BME280;42885;49.754;18.636;2023-02-23T03:50:07;98201.06;;;3.18;100.00
56992;BME280;42885;49.754;18.636;2023-02-23T03:52:58;98209.32;;;3.29;100.00
56992;BME280;42885;49.754;18.636;2023-02-23T03:55:51;98210.34;;;3.10;100.00
56992;BME280;42885;49.754;18.636;2023-02-23T03:58:45;98208.08;;;3.14;100.00
56992;BME280;42885;49.754;18.636;2023-02-23T04:01:34;98203.66;;;3.18;100.00
56992;BME280;42885;49.754;18.636;2023-02-23T04:04:25;98206.98;;;3.35;100.00
56992;BME280;42885;49.754;18.636;2023-02-23T04:07:17;98209.41;;;3.12;100.00
56992;BME280;42885;49.754;18.636;2023-02-23T04:10:07;98215.72;;;3.03;100.00
56992;BME280;42885;49.754;18.636;2023-02-23T04:15:53;98213.70;;;3.27;100.00
56992;BME280;42885;49.754;18.636;2023-02-23T04:18:35;98216.13;;;3.18;100.00
56992;BME280;42885;49.754;18.636;2023-02-23T04:21:00;98212.74;;;3.16;100.00
56992;BME280;42885;49.754;18.636;2023-02-23T04:23:32;98210.20;;;3.14;100.00
56992;BME280;42885;49.754;18.636;2023-02-23T04:26:03;98204.41;;;3.21;100.00
56992;BME280;42885;49.754;18.636;2023-02-23T04:28:34;98211.08;;;3.28;100.00
56992;BME280;42885;49.754;18.636;2023-02-23T04:31:05;98206.59;;;3.34;100.00
56992;BME280;42885;49.754;18.636;2023-02-23T04:33:36;98207.88;;;3.34;100.00
56992;BME280;42885;49.754;18.636;2023-02-23T04:36:07;98204.39;;;3.35;100.00
56992;BME280;42885;49.754;18.636;2023-02-23T04:38:38;98205.61;;;3.38;100.00
56992;BME280;42885;49.754;18.636;2023-02-23T04:41:09;98206.70;;;3.30;100.00
56992;BME280;42885;49.754;18.636;2023-02-23T04:43:40;98201.41;;;3.34;100.00
56992;BME280;42885;49.754;18.636;2023-02-23T04:46:11;98207.23;;;3.27;100.00
56992;BME280;42885;49.754;18.636;2023-02-23T04:48:42;98208.23;;;3.36;100.00
56992;BME280;42885;49.754;18.636;2023-02-23T04:51:13;98203.00;;;3.51;100.00
56992;BME280;42885;49.754;18.636;2023-02-23T04:53:44;98203.16;;;3.47;100.00
56992;BME280;42885;49.754;18.636;2023-02-23T04:56:15;98207.84;;;3.35;100.00
56992;BME280;42885;49.754;18.636;2023-02-23T04:58:46;98196.05;;;3.53;100.00
56992;BME280;42885;49.754;18.636;2023-02-23T05:01:17;98203.07;;;3.50;100.00
56992;BME280;42885;49.754;18.636;2023-02-23T05:03:49;98201.93;;;3.45;100.00
56992;BME280;42885;49.754;18.636;2023-02-23T05:06:20;98201.65;;;4.05;100.00
56992;BME280;42885;49.754;18.636;2023-02-23T05:08:52;98199.71;;;3.60;100.00
56992;BME280;42885;49.754;18.636;2023-02-23T05:11:22;98198.84;;;3.47;100.00
56992;BME280;42885;49.754;18.636;2023-02-23T05:13:55;98200.11;;;3.61;100.00
56992;BME280;42885;49.754;18.636;2023-02-23T05:16:26;98197.94;;;3.62;100.00
56992;BME280;42885;49.754;18.636;2023-02-23T05:18:57;98191.03;;;3.88;100.00
56992;BME280;42885;49.754;18.636;2023-02-23T05:21:28;98188.48;;;3.86;100.00
56992;BME280;42885;49.754;18.636;2023-02-23T05:23:59;98190.24;;;3.97;100.00
56992;BME280;42885;49.754;18.636;2023-02-23T05:26:31;98194.48;;;4.00;100.00
56992;BME280;42885;49.754;18.636;2023-02-23T05:29:02;98191.59;;;3.84;100.00
56992;BME280;42885;49.754;18.636;2023-02-23T05:31:35;98197.59;;;3.84;100.00
56992;BME280;42885;49.754;18.636;2023-02-23T05:34:06;98195.91;;;3.83;100.00
56992;BME280;42885;49.754;18.636;2023-02-23T05:36:37;98196.64;;;3.48;100.00
56992;BME280;42885;49.754;18.636;2023-02-23T05:39:08;98200.92;;;3.63;100.00
56992;BME280;42885;49.754;18.636;2023-02-23T05:41:39;98200.22;;;3.71;100.00
56992;BME280;42885;49.754;18.636;2023-02-23T05:44:10;98204.73;;;3.64;100.00
56992;BME280;42885;49.754;18.636;2023-02-23T05:46:41;98200.42;;;3.65;100.00
56992;BME280;42885;49.754;18.636;2023-02-23T05:49:12;98209.91;;;3.78;100.00
56992;BME280;42885;49.754;18.636;2023-02-23T05:51:44;98202.81;;;3.71;100.00
56992;BME280;42885;49.754;18.636;2023-02-23T05:54:15;98197.45;;;4.01;100.00
56992;BME280;42885;49.754;18.636;2023-02-23T05:56:46;98204.23;;;4.05;100.00
56992;BME280;42885;49.754;18.636;2023-02-23T05:59:17;98200.28;;;3.95;100.00
56992;BME280;42885;49.754;18.636;2023-02-23T06:01:48;98195.63;;;3.79;100.00
56992;BME280;42885;49.754;18.636;2023-02-23T06:04:19;98204.63;;;4.06;100.00
56992;BME280;42885;49.754;18.636;2023-02-23T06:06:51;98201.20;;;4.18;100.00
56992;BME280;42885;49.754;18.636;2023-02-23T06:09:22;98208.37;;;4.23;100.00
56992;BME280;42885;49.754;18.636;2023-02-23T06:11:53;98209.95;;;4.39;100.00
56992;BME280;42885;49.754;18.636;2023-02-23T06:14:24;98210.37;;;4.40;100.00
56992;BME280;42885;49.754;18.636;2023-02-23T06:16:56;98212.22;;;4.36;100.00
56992;BME280;42885;49.754;18.636;2023-02-23T06:19:27;98212.53;;;4.39;100.00
56992;BME280;42885;49.754;18.636;2023-02-23T06:21:58;98212.96;;;4.40;100.00
56992;BME280;42885;49.754;18.636;2023-02-23T06:24:29;98214.79;;;4.60;100.00
56992;BME280;42885;49.754;18.636;2023-02-23T06:27:00;98221.09;;;4.77;100.00
56992;BME280;42885;49.754;18.636;2023-02-23T06:29:32;98216.97;;;4.95;100.00
56992;BME280;42885;49.754;18.636;2023-02-23T06:32:03;98210.31;;;6.08;100.00
56992;BME280;42885;49.754;18.636;2023-02-23T06:34:34;98223.87;;;5.94;100.00
56992;BME280;42885;49.754;18.636;2023-02-23T06:37:07;98228.95;;;5.32;100.00
56992;BME280;42885;49.754;18.636;2023-02-23T06:39:38;98225.77;;;5.58;100.00
56992;BME280;42885;49.754;18.636;2023-02-23T06:42:09;98229.74;;;5.56;100.00
56992;BME280;42885;49.754;18.636;2023-02-23T06:44:40;98231.45;;;5.01;100.00
56992;BME280;42885;49.754;18.636;2023-02-23T06:47:11;98236.88;;;5.06;100.00
56992;BME280;42885;49.754;18.636;2023-02-23T06:49:42;98236.00;;;4.72;100.00
56992;BME280;42885;49.754;18.636;2023-02-23T06:52:14;98238.46;;;4.87;100.00
56992;BME280;42885;49.754;18.636;2023-02-23T06:54:45;98233.45;;;4.58;100.00
56992;BME280;42885;49.754;18.636;2023-02-23T06:57:17;98233.41;;;4.48;100.00
56992;BME280;42885;49.754;18.636;2023-02-23T06:59:49;98237.86;;;4.56;100.00
56992;BME280;42885;49.754;18.636;2023-02-23T07:02:20;98235.30;;;4.90;100.00
56992;BME280;42885;49.754;18.636;2023-02-23T07:04:51;98236.27;;;4.76;100.00
56992;BME280;42885;49.754;18.636;2023-02-23T07:07:22;98238.38;;;4.66;100.00
56992;BME280;42885;49.754;18.636;2023-02-23T07:09:53;98236.17;;;4.55;100.00
56992;BME280;42885;49.754;18.636;2023-02-23T07:12:24;98237.90;;;4.78;100.00
56992;BME280;42885;49.754;18.636;2023-02-23T07:14:55;98237.84;;;4.92;100.00
56992;BME280;42885;49.754;18.636;2023-02-23T07:17:27;98231.88;;;5.24;100.00
56992;BME280;42885;49.754;18.636;2023-02-23T07:19:57;98236.77;;;5.20;100.00
56992;BME280;42885;49.754;18.636;2023-02-23T07:22:28;98232.28;;;5.13;100.00
56992;BME280;42885;49.754;18.636;2023-02-23T07:24:59;98234.77;;;5.27;100.00
56992;BME280;42885;49.754;18.636;2023-02-23T07:27:30;98238.11;;;5.53;100.00
56992;BME280;42885;49.754;18.636;2023-02-23T07:30:02;98230.23;;;5.21;100.00
56992;BME280;42885;49.754;18.636;2023-02-23T07:32:33;98227.06;;;5.68;100.00
56992;BME280;42885;49.754;18.636;2023-02-23T07:35:04;98233.69;;;5.55;100.00
56992;BME280;42885;49.754;18.636;2023-02-23T07:37:36;98227.24;;;5.86;100.00
56992;BME280;42885;49.754;18.636;2023-02-23T07:40:08;98226.27;;;5.99;100.00
56992;BME280;42885;49.754;18.636;2023-02-23T07:42:39;98227.44;;;5.81;100.00
56992;BME280;42885;49.754;18.636;2023-02-23T07:45:12;98225.08;;;5.85;100.00
56992;BME280;42885;49.754;18.636;2023-02-23T07:47:43;98220.95;;;6.12;100.00
56992;BME280;42885;49.754;18.636;2023-02-23T07:50:14;98218.64;;;6.46;100.00
56992;BME280;42885;49.754;18.636;2023-02-23T07:52:45;98222.67;;;6.72;100.00
56992;BME280;42885;49.754;18.636;2023-02-23T07:55:16;98219.56;;;6.83;100.00
56992;BME280;42885;49.754;18.636;2023-02-23T07:57:47;98222.38;;;6.79;100.00
56992;BME280;42885;49.754;18.636;2023-02-23T08:00:19;98221.77;;;6.63;100.00
56992;BME280;42885;49.754;18.636;2023-02-23T08:02:50;98214.72;;;7.23;100.00
56992;BME280;42885;49.754;18.636;2023-02-23T08:05:22;98210.65;;;7.17;100.00
56992;BME280;42885;49.754;18.636;2023-02-23T08:07:54;98207.80;;;8.03;100.00
56992;BME280;42885;49.754;18.636;2023-02-23T08:10:26;98214.56;;;7.26;100.00
56992;BME280;42885;49.754;18.636;2023-02-23T08:12:57;98211.57;;;7.25;100.00
56992;BME280;42885;49.754;18.636;2023-02-23T08:15:29;98208.02;;;7.36;100.00
56992;BME280;42885;49.754;18.636;2023-02-23T08:18:00;98213.00;;;7.67;100.00
56992;BME280;42885;49.754;18.636;2023-02-23T08:20:32;98211.88;;;7.91;100.00
56992;BME280;42885;49.754;18.636;2023-02-23T08:23:03;98210.18;;;7.81;100.00
56992;BME280;42885;49.754;18.636;2023-02-23T08:25:35;98207.72;;;7.69;100.00
56992;BME280;42885;49.754;18.636;2023-02-23T08:28:06;98208.91;;;8.23;100.00
56992;BME280;42885;49.754;18.636;2023-02-23T08:30:37;98208.91;;;8.23;100.00
56992;BME280;42885;49.754;18.636;2023-02-23T08:33:09;98206.44;;;8.29;100.00
56992;BME280;42885;49.754;18.636;2023-02-23T08:35:40;98205.95;;;8.81;99.82
56992;BME280;42885;49.754;18.636;2023-02-23T08:38:11;98205.94;;;8.97;97.92
56992;BME280;42885;49.754;18.636;2023-02-23T08:40:42;98204.81;;;8.94;97.40
56992;BME280;42885;49.754;18.636;2023-02-23T08:43:13;98198.73;;;9.56;94.91
56992;BME280;42885;49.754;18.636;2023-02-23T08:45:44;98202.91;;;9.82;91.07
56992;BME280;42885;49.754;18.636;2023-02-23T08:48:15;98197.73;;;10.04;87.80
56992;BME280;42885;49.754;18.636;2023-02-23T08:50:47;98193.08;;;10.24;86.25
56992;BME280;42885;49.754;18.636;2023-02-23T08:53:18;98190.45;;;10.16;82.94
56992;BME280;42885;49.754;18.636;2023-02-23T08:55:58;98195.13;;;10.40;82.65
56992;BME280;42885;49.754;18.636;2023-02-23T08:58:30;98189.84;;;10.42;84.15
56992;BME280;42885;49.754;18.636;2023-02-23T09:01:03;98190.39;;;10.40;84.38
56992;BME280;42885;49.754;18.636;2023-02-23T09:03:34;98190.46;;;10.74;83.59
56992;BME280;42885;49.754;18.636;2023-02-23T09:06:08;98190.65;;;10.86;80.31
56992;BME280;42885;49.754;18.636;2023-02-23T09:08:40;98183.88;;;10.96;82.17
56992;BME280;42885;49.754;18.636;2023-02-23T09:11:13;98183.06;;;10.96;80.14
56992;BME280;42885;49.754;18.636;2023-02-23T09:13:45;98179.44;;;11.11;81.17
56992;BME280;42885;49.754;18.636;2023-02-23T09:16:16;98178.11;;;11.19;79.15
56992;BME280;42885;49.754;18.636;2023-02-23T09:18:48;98177.73;;;11.45;77.16
56992;BME280;42885;49.754;18.636;2023-02-23T09:21:20;98172.45;;;11.52;77.68
56992;BME280;42885;49.754;18.636;2023-02-23T09:23:54;98177.16;;;11.80;77.27
56992;BME280;42885;49.754;18.636;2023-02-23T09:26:28;98174.41;;;12.02;73.87
56992;BME280;42885;49.754;18.636;2023-02-23T09:29:04;98176.80;;;12.13;71.63
56992;BME280;42885;49.754;18.636;2023-02-23T09:31:38;98176.28;;;12.33;72.31
56992;BME280;42885;49.754;18.636;2023-02-23T09:34:10;98179.36;;;12.64;71.02
56992;BME280;42885;49.754;18.636;2023-02-23T09:36:41;98178.34;;;12.54;71.03
56992;BME280;42885;49.754;18.636;2023-02-23T09:39:13;98178.34;;;12.54;71.17
56992;BME280;42885;49.754;18.636;2023-02-23T09:47:46;98177.53;;;12.72;70.79
56992;BME280;42885;49.754;18.636;2023-02-23T09:50:28;98178.47;;;12.90;69.67
56992;BME280;42885;49.754;18.636;2023-02-23T09:53:01;98178.73;;;12.92;69.72
56992;BME280;42885;49.754;18.636;2023-02-23T09:55:32;98178.98;;;13.68;71.23
56992;BME280;42885;49.754;18.636;2023-02-23T09:58:07;98179.09;;;13.18;70.87
56992;BME280;42885;49.754;18.636;2023-02-23T10:00:41;98167.09;;;13.57;67.15
56992;BME280;42885;49.754;18.636;2023-02-23T10:03:33;98166.05;;;14.24;64.60
56992;BME280;42885;49.754;18.636;2023-02-23T10:06:08;98169.14;;;14.17;63.25
56992;BME280;42885;49.754;18.636;2023-02-23T10:08:50;98160.77;;;14.29;61.97
56992;BME280;42885;49.754;18.636;2023-02-23T10:17:10;98163.90;;;14.35;64.01
56992;BME280;42885;49.754;18.636;2023-02-23T10:19:49;98163.63;;;13.98;67.50
56992;BME280;42885;49.754;18.636;2023-02-23T10:22:20;98155.41;;;14.20;65.66
56992;BME280;42885;49.754;18.636;2023-02-23T10:24:57;98155.27;;;14.55;64.21
56992;BME280;42885;49.754;18.636;2023-02-23T10:27:43;98157.05;;;14.66;62.81
56992;BME280;42885;49.754;18.636;2023-02-23T10:30:29;98150.93;;;14.89;62.46
56992;BME280;42885;49.754;18.636;2023-02-23T10:35:36;98152.33;;;15.43;60.18
56992;BME280;42885;49.754;18.636;2023-02-23T10:38:17;98145.87;;;15.62;59.04
56992;BME280;42885;49.754;18.636;2023-02-23T10:40:55;98146.41;;;15.72;60.03
56992;BME280;42885;49.754;18.636;2023-02-23T10:43:26;98145.48;;;15.88;58.83
56992;BME280;42885;49.754;18.636;2023-02-23T10:45:58;98138.89;;;15.94;58.20
56992;BME280;42885;49.754;18.636;2023-02-23T10:48:37;98135.73;;;15.52;58.61
56992;BME280;42885;49.754;18.636;2023-02-23T10:51:21;98132.86;;;16.29;58.45
56992;BME280;42885;49.754;18.636;2023-02-23T10:53:45;98129.59;;;16.31;58.86
56992;BME280;42885;49.754;18.636;2023-02-23T10:56:18;98125.78;;;16.45;56.87
56992;BME280;42885;49.754;18.636;2023-02-23T10:58:58;98131.07;;;16.55;55.55
56992;BME280;42885;49.754;18.636;2023-02-23T11:01:38;98123.38;;;16.32;57.25
56992;BME280;42885;49.754;18.636;2023-02-23T11:04:23;98119.63;;;16.85;57.60
56992;BME280;42885;49.754;18.636;2023-02-23T11:07:23;98120.40;;;16.41;56.58
56992;BME280;42885;49.754;18.636;2023-02-23T11:12:50;98115.87;;;16.98;54.91
56992;BME280;42885;49.754;18.636;2023-02-23T11:15:30;98110.13;;;17.47;51.88
56992;BME280;42885;49.754;18.636;2023-02-23T11:18:03;98106.42;;;17.54;51.29
56992;BME280;42885;49.754;18.636;2023-02-23T11:20:40;98106.84;;;17.50;51.96
56992;BME280;42885;49.754;18.636;2023-02-23T11:23:19;98102.20;;;17.18;53.38
56992;BME280;42885;49.754;18.636;2023-02-23T11:25:50;98106.64;;;16.72;54.10
56992;BME280;42885;49.754;18.636;2023-02-23T11:28:32;98099.22;;;17.17;53.40
56992;BME280;42885;49.754;18.636;2023-02-23T11:31:19;98101.31;;;17.23;53.24
56992;BME280;42885;49.754;18.636;2023-02-23T11:33:53;98097.88;;;17.37;52.61
56992;BME280;42885;49.754;18.636;2023-02-23T11:36:30;98088.90;;;17.14;52.23
56992;BME280;42885;49.754;18.636;2023-02-23T11:39:19;98091.73;;;17.46;52.15
56992;BME280;42885;49.754;18.636;2023-02-23T11:42:14;98078.23;;;17.00;52.92
56992;BME280;42885;49.754;18.636;2023-02-23T11:44:50;98089.00;;;16.92;52.77
56992;BME280;42885;49.754;18.636;2023-02-23T11:47:23;98077.55;;;17.71;50.92
56992;BME280;42885;49.754;18.636;2023-02-23T11:49:55;98069.86;;;18.11;50.67
56992;BME280;42885;49.754;18.636;2023-02-23T11:52:27;98072.41;;;18.17;50.04
56992;BME280;42885;49.754;18.636;2023-02-23T11:55:11;98067.22;;;18.25;49.26
56992;BME280;42885;49.754;18.636;2023-02-23T11:57:42;98060.14;;;18.58;48.94
56992;BME280;42885;49.754;18.636;2023-02-23T12:00:26;98059.50;;;18.60;49.16
56992;BME280;42885;49.754;18.636;2023-02-23T12:02:51;98062.20;;;18.82;48.54
56992;BME280;42885;49.754;18.636;2023-02-23T12:05:30;98058.45;;;18.71;47.61
56992;BME280;42885;49.754;18.636;2023-02-23T12:08:12;98059.41;;;18.52;47.90
56992;BME280;42885;49.754;18.636;2023-02-23T12:10:52;98053.31;;;19.24;47.15
56992;BME280;42885;49.754;18.636;2023-02-23T12:18:59;98040.78;;;20.18;44.87
56992;BME280;42885;49.754;18.636;2023-02-23T12:21:51;98044.67;;;19.44;44.51
56992;BME280;42885;49.754;18.636;2023-02-23T12:24:39;98044.72;;;19.48;44.87
56992;BME280;42885;49.754;18.636;2023-02-23T12:27:27;98039.10;;;19.07;46.77
56992;BME280;42885;49.754;18.636;2023-02-23T12:32:50;98040.09;;;18.74;48.51
56992;BME280;42885;49.754;18.636;2023-02-23T12:35:48;98027.09;;;19.43;47.04
56992;BME280;42885;49.754;18.636;2023-02-23T12:41:11;98019.50;;;20.05;50.12
56992;BME280;42885;49.754;18.636;2023-02-23T12:44:03;98017.81;;;20.04;47.73
56992;BME280;42885;49.754;18.636;2023-02-23T12:46:36;98020.80;;;20.01;47.95
56992;BME280;42885;49.754;18.636;2023-02-23T12:52:09;98011.78;;;18.96;47.25
56992;BME280;42885;49.754;18.636;2023-02-23T12:54:42;98011.47;;;17.75;50.35
56992;BME280;42885;49.754;18.636;2023-02-23T12:57:22;98013.36;;;17.69;51.29
56992;BME280;42885;49.754;18.636;2023-02-23T13:05:34;97996.91;;;18.63;49.41
56992;BME280;42885;49.754;18.636;2023-02-23T13:13:56;97992.17;;;17.21;53.03
56992;BME280;42885;49.754;18.636;2023-02-23T13:16:33;98001.11;;;16.71;54.82
56992;BME280;42885;49.754;18.636;2023-02-23T13:19:14;97990.84;;;17.79;52.10
56992;BME280;42885;49.754;18.636;2023-02-23T13:21:51;97993.28;;;17.76;51.71
56992;BME280;42885;49.754;18.636;2023-02-23T13:24:35;97984.87;;;17.91;51.09
56992;BME280;42885;49.754;18.636;2023-02-23T13:27:14;97976.40;;;18.47;50.25
56992;BME280;42885;49.754;18.636;2023-02-23T13:29:46;97978.01;;;18.26;49.97
56992;BME280;42885;49.754;18.636;2023-02-23T13:32:21;97977.42;;;18.04;50.11
56992;BME280;42885;49.754;18.636;2023-02-23T13:34:56;97972.17;;;18.22;50.38
56992;BME280;42885;49.754;18.636;2023-02-23T13:40:22;97971.02;;;18.39;49.80
56992;BME280;42885;49.754;18.636;2023-02-23T13:43:00;97965.69;;;18.21;49.96
56992;BME280;42885;49.754;18.636;2023-02-23T13:45:40;97965.91;;;18.09;50.96
56992;BME280;42885;49.754;18.636;2023-02-23T13:51:18;97965.94;;;18.13;51.60
56992;BME280;42885;49.754;18.636;2023-02-23T13:56:33;97958.60;;;18.98;47.19
56992;BME280;42885;49.754;18.636;2023-02-23T13:59:07;97960.70;;;18.50;47.93
56992;BME280;42885;49.754;18.636;2023-02-23T14:01:42;97959.50;;;18.02;50.15
56992;BME280;42885;49.754;18.636;2023-02-23T14:04:23;97959.37;;;18.18;50.66
56992;BME280;42885;49.754;18.636;2023-02-23T14:09:49;97953.81;;;17.97;49.95
56992;BME280;42885;49.754;18.636;2023-02-23T14:12:22;97952.83;;;16.98;52.49
56992;BME280;42885;49.754;18.636;2023-02-23T14:14:50;97958.80;;;16.81;53.54
56992;BME280;42885;49.754;18.636;2023-02-23T14:20:17;97954.92;;;16.85;54.51
56992;BME280;42885;49.754;18.636;2023-02-23T14:26:13;97948.39;;;16.40;55.61
56992;BME280;42885;49.754;18.636;2023-02-23T14:28:47;97949.50;;;16.37;56.19
56992;BME280;42885;49.754;18.636;2023-02-23T14:31:21;97956.30;;;16.20;57.39
56992;BME280;42885;49.754;18.636;2023-02-23T14:33:59;97940.81;;;16.90;56.05
56992;BME280;42885;49.754;18.636;2023-02-23T14:36:45;97941.70;;;17.04;55.19
56992;BME280;42885;49.754;18.636;2023-02-23T14:39:18;97943.50;;;16.94;54.95
56992;BME280;42885;49.754;18.636;2023-02-23T14:41:57;97933.61;;;16.96;54.66
56992;BME280;42885;49.754;18.636;2023-02-23T14:44:36;97933.06;;;16.92;54.58
56992;BME280;42885;49.754;18.636;2023-02-23T14:47:17;97932.33;;;16.86;56.63
56992;BME280;42885;49.754;18.636;2023-02-23T14:49:59;97929.88;;;17.09;55.84
56992;BME280;42885;49.754;18.636;2023-02-23T14:52:39;97929.05;;;16.78;56.57
56992;BME280;42885;49.754;18.636;2023-02-23T14:57:46;97932.30;;;16.07;61.07
56992;BME280;42885;49.754;18.636;2023-02-23T15:00:24;97927.11;;;16.51;60.56
56992;BME280;42885;49.754;18.636;2023-02-23T15:03:04;97930.31;;;16.55;60.52